sensor_id;sensor_type;location;lat;lon;timestamp;P1;durP1;ratioP1;P2;durP2;ratioP2
7525;SDS011;3804;50.860;6.208;2023-04-20T00:00:58;8.23;;;4.20;;
7525;SDS011;3804;50.860;6.208;2023-04-20T00:03:25;6.37;;;3.83;;
7525;SDS011;3804;50.860;6.208;2023-04-20T00:05:53;9.07;;;3.83;;
7525;SDS011;3804;50.860;6.208;2023-04-20T00:08:20;9.47;;;3.80;;
7525;SDS011;3804;50.860;6.208;2023-04-20T00:10:47;9.00;;;3.77;;
7525;SDS011;3804;50.860;6.208;2023-04-20T00:13:13;6.10;;;3.43;;
7525;SDS011;3804;50.860;6.208;2023-04-20T00:15:40;8.97;;;3.90;;
7525;SDS011;3804;50.860;6.208;2023-04-20T00:18:07;6.80;;;4.10;;
7525;SDS011;3804;50.860;6.208;2023-04-20T00:20:34;6.83;;;4.13;;
7525;SDS011;3804;50.860;6.208;2023-04-20T00:23:01;6.50;;;3.73;;
7525;SDS011;3804;50.860;6.208;2023-04-20T00:25:27;8.40;;;3.80;;
7525;SDS011;3804;50.860;6.208;2023-04-20T00:27:56;5.60;;;3.93;;
7525;SDS011;3804;50.860;6.208;2023-04-20T00:30:22;5.87;;;3.70;;
7525;SDS011;3804;50.860;6.208;2023-04-20T00:32:50;8.27;;;4.17;;
7525;SDS011;3804;50.860;6.208;2023-04-20T00:35:17;8.03;;;3.77;;
7525;SDS011;3804;50.860;6.208;2023-04-20T00:37:43;5.03;;;3.63;;
7525;SDS011;3804;50.860;6.208;2023-04-20T00:40:10;5.13;;;3.33;;
7525;SDS011;3804;50.860;6.208;2023-04-20T00:42:37;5.57;;;3.53;;
7525;SDS011;3804;50.860;6.208;2023-04-20T00:45:06;5.90;;;3.50;;
7525;SDS011;3804;50.860;6.208;2023-04-20T00:47:35;5.87;;;3.20;;
7525;SDS011;3804;50.860;6.208;2023-04-20T00:50:02;6.47;;;3.50;;
7525;SDS011;3804;50.860;6.208;2023-04-20T00:52:29;5.33;;;3.70;;
7525;SDS011;3804;50.860;6.208;2023-04-20T00:54:56;7.20;;;3.50;;
7525;SDS011;3804;50.860;6.208;2023-04-20T00:57:23;3.43;;;2.93;;
7525;SDS011;3804;50.860;6.208;2023-04-20T00:59:52;5.77;;;3.33;;
7525;SDS011;3804;50.860;6.208;2023-04-20T01:02:20;6.27;;;3.77;;
7525;SDS011;3804;50.860;6.208;2023-04-20T01:04:47;6.13;;;3.40;;
7525;SDS011;3804;50.860;6.208;2023-04-20T01:07:14;7.03;;;3.60;;
7525;SDS011;3804;50.860;6.208;2023-04-20T01:09:41;4.60;;;3.33;;
7525;SDS011;3804;50.860;6.208;2023-04-20T01:12:08;4.77;;;3.33;;
7525;SDS011;3804;50.860;6.208;2023-04-20T01:14:35;5.10;;;3.60;;
7525;SDS011;3804;50.860;6.208;2023-04-20T01:17:02;6.13;;;3.53;;
7525;SDS011;3804;50.860;6.208;2023-04-20T01:19:30;5.67;;;3.37;;
7525;SDS011;3804;50.860;6.208;2023-04-20T01:21:57;7.47;;;3.40;;
7525;SDS011;3804;50.860;6.208;2023-04-20T01:24:24;4.87;;;3.50;;
7525;SDS011;3804;50.860;6.208;2023-04-20T01:26:50;6.73;;;3.40;;
7525;SDS011;3804;50.860;6.208;2023-04-20T01:29:17;7.70;;;3.80;;
7525;SDS011;3804;50.860;6.208;2023-04-20T01:31:44;4.80;;;3.90;;
7525;SDS011;3804;50.860;6.208;2023-04-20T01:34:11;4.20;;;3.77;;
7525;SDS011;3804;50.860;6.208;2023-04-20T01:36:38;8.00;;;4.17;;
7525;SDS011;3804;50.860;6.208;2023-04-20T01:39:05;10.07;;;4.60;;
7525;SDS011;3804;50.860;6.208;2023-04-20T01:41:32;8.30;;;4.23;;
7525;SDS011;3804;50.860;6.208;2023-04-20T01:43:59;4.27;;;3.63;;
7525;SDS011;3804;50.860;6.208;2023-04-20T01:46:26;6.80;;;3.80;;
7525;SDS011;3804;50.860;6.208;2023-04-20T01:48:52;5.37;;;4.10;;
7525;SDS011;3804;50.860;6.208;2023-04-20T01:51:19;6.10;;;3.97;;
7525;SDS011;3804;50.860;6.208;2023-04-20T01:53:46;4.67;;;3.87;;
7525;SDS011;3804;50.860;6.208;2023-04-20T01:56:12;5.70;;;4.57;;
7525;SDS011;3804;50.860;6.208;2023-04-20T01:58:39;6.07;;;3.80;;
7525;SDS011;3804;50.860;6.208;2023-04-20T02:01:06;5.33;;;4.10;;
7525;SDS011;3804;50.860;6.208;2023-04-20T02:03:33;5.93;;;4.47;;
7525;SDS011;3804;50.860;6.208;2023-04-20T02:06:00;7.60;;;4.20;;
7525;SDS011;3804;50.860;6.208;2023-04-20T02:08:28;6.70;;;4.17;;
7525;SDS011;3804;50.860;6.208;2023-04-20T02:10:55;6.13;;;3.93;;
7525;SDS011;3804;50.860;6.208;2023-04-20T02:13:22;6.90;;;3.60;;
7525;SDS011;3804;50.860;6.208;2023-04-20T02:15:49;7.33;;;4.70;;
7525;SDS011;3804;50.860;6.208;2023-04-20T02:18:16;7.47;;;4.83;;
7525;SDS011;3804;50.860;6.208;2023-04-20T02:20:43;6.37;;;4.43;;
7525;SDS011;3804;50.860;6.208;2023-04-20T02:23:10;7.90;;;4.10;;
7525;SDS011;3804;50.860;6.208;2023-04-20T02:25:37;5.23;;;3.33;;
7525;SDS011;3804;50.860;6.208;2023-04-20T02:28:04;7.67;;;3.77;;
7525;SDS011;3804;50.860;6.208;2023-04-20T02:30:31;4.03;;;3.37;;
7525;SDS011;3804;50.860;6.208;2023-04-20T02:32:58;4.83;;;3.90;;
7525;SDS011;3804;50.860;6.208;2023-04-20T02:35:24;6.27;;;3.50;;
7525;SDS011;3804;50.860;6.208;2023-04-20T02:37:51;4.67;;;3.40;;
7525;SDS011;3804;50.860;6.208;2023-04-20T02:40:18;5.87;;;3.50;;
7525;SDS011;3804;50.860;6.208;2023-04-20T02:42:45;4.80;;;3.27;;
7525;SDS011;3804;50.860;6.208;2023-04-20T02:45:12;5.43;;;3.53;;
7525;SDS011;3804;50.860;6.208;2023-04-20T02:47:42;5.23;;;3.87;;
7525;SDS011;3804;50.860;6.208;2023-04-20T02:50:11;7.07;;;3.53;;
7525;SDS011;3804;50.860;6.208;2023-04-20T02:52:56;5.80;;;3.60;;
7525;SDS011;3804;50.860;6.208;2023-04-20T02:55:23;3.43;;;3.10;;
7525;SDS011;3804;50.860;6.208;2023-04-20T02:57:54;5.03;;;3.33;;
7525;SDS011;3804;50.860;6.208;2023-04-20T03:00:31;5.97;;;3.70;;
7525;SDS011;3804;50.860;6.208;2023-04-20T03:03:06;4.40;;;3.03;;
7525;SDS011;3804;50.860;6.208;2023-04-20T03:05:33;3.77;;;3.40;;
7525;SDS011;3804;50.860;6.208;2023-04-20T03:08:00;5.03;;;3.37;;
7525;SDS011;3804;50.860;6.208;2023-04-20T03:10:27;6.57;;;3.70;;
7525;SDS011;3804;50.860;6.208;2023-04-20T03:12:58;3.93;;;3.30;;
7525;SDS011;3804;50.860;6.208;2023-04-20T03:15:30;4.00;;;2.90;;
7525;SDS011;3804;50.860;6.208;2023-04-20T03:18:12;5.10;;;2.93;;
7525;SDS011;3804;50.860;6.208;2023-04-20T03:20:39;4.03;;;3.33;;
7525;SDS011;3804;50.860;6.208;2023-04-20T03:23:07;6.93;;;4.00;;
7525;SDS011;3804;50.860;6.208;2023-04-20T03:25:34;4.83;;;3.47;;
7525;SDS011;3804;50.860;6.208;2023-04-20T03:28:10;8.27;;;3.80;;
7525;SDS011;3804;50.860;6.208;2023-04-20T03:30:39;4.77;;;3.20;;
7525;SDS011;3804;50.860;6.208;2023-04-20T03:33:12;5.43;;;3.20;;
7525;SDS011;3804;50.860;6.208;2023-04-20T03:35:39;7.10;;;3.50;;
7525;SDS011;3804;50.860;6.208;2023-04-20T03:38:05;6.20;;;3.40;;
7525;SDS011;3804;50.860;6.208;2023-04-20T03:40:32;7.17;;;3.27;;
7525;SDS011;3804;50.860;6.208;2023-04-20T03:42:59;4.47;;;3.40;;
7525;SDS011;3804;50.860;6.208;2023-04-20T03:45:27;4.70;;;2.90;;
7525;SDS011;3804;50.860;6.208;2023-04-20T03:47:53;5.67;;;3.20;;
7525;SDS011;3804;50.860;6.208;2023-04-20T03:50:20;7.83;;;3.57;;
7525;SDS011;3804;50.860;6.208;2023-04-20T03:52:48;6.90;;;3.67;;
7525;SDS011;3804;50.860;6.208;2023-04-20T03:55:15;6.43;;;3.00;;
7525;SDS011;3804;50.860;6.208;2023-04-20T03:57:47;4.17;;;2.87;;
7525;SDS011;3804;50.860;6.208;2023-04-20T04:00:15;6.30;;;3.17;;
7525;SDS011;3804;50.860;6.208;2023-04-20T04:02:45;4.13;;;2.73;;
7525;SDS011;3804;50.860;6.208;2023-04-20T04:05:17;6.43;;;2.93;;
7525;SDS011;3804;50.860;6.208;2023-04-20T04:07:43;5.20;;;3.53;;
7525;SDS011;3804;50.860;6.208;2023-04-20T04:10:12;5.50;;;3.17;;
7525;SDS011;3804;50.860;6.208;2023-04-20T04:12:39;6.07;;;3.33;;
7525;SDS011;3804;50.860;6.208;2023-04-20T04:15:06;4.93;;;3.27;;
7525;SDS011;3804;50.860;6.208;2023-04-20T04:17:39;3.97;;;3.03;;
7525;SDS011;3804;50.860;6.208;2023-04-20T04:20:06;4.30;;;2.97;;
7525;SDS011;3804;50.860;6.208;2023-04-20T04:22:37;4.70;;;2.80;;
7525;SDS011;3804;50.860;6.208;2023-04-20T04:25:22;5.33;;;2.53;;
7525;SDS011;3804;50.860;6.208;2023-04-20T04:27:49;3.97;;;3.10;;
7525;SDS011;3804;50.860;6.208;2023-04-20T04:30:17;5.37;;;2.90;;
7525;SDS011;3804;50.860;6.208;2023-04-20T04:32:46;5.27;;;3.20;;
7525;SDS011;3804;50.860;6.208;2023-04-20T04:35:15;4.30;;;3.10;;
7525;SDS011;3804;50.860;6.208;2023-04-20T04:37:42;8.00;;;3.07;;
7525;SDS011;3804;50.860;6.208;2023-04-20T04:40:09;4.63;;;2.77;;
7525;SDS011;3804;50.860;6.208;2023-04-20T04:42:37;4.93;;;2.73;;
7525;SDS011;3804;50.860;6.208;2023-04-20T04:45:05;6.70;;;3.40;;
7525;SDS011;3804;50.860;6.208;2023-04-20T04:47:37;6.67;;;3.37;;
7525;SDS011;3804;50.860;6.208;2023-04-20T04:50:07;6.83;;;3.60;;
7525;SDS011;3804;50.860;6.208;2023-04-20T04:52:35;4.87;;;3.83;;
7525;SDS011;3804;50.860;6.208;2023-04-20T04:55:02;7.03;;;3.40;;
7525;SDS011;3804;50.860;6.208;2023-04-20T04:57:34;5.27;;;4.00;;
7525;SDS011;3804;50.860;6.208;2023-04-20T05:00:01;5.03;;;4.10;;
7525;SDS011;3804;50.860;6.208;2023-04-20T05:02:28;7.13;;;4.20;;
7525;SDS011;3804;50.860;6.208;2023-04-20T05:04:56;7.03;;;4.00;;
7525;SDS011;3804;50.860;6.208;2023-04-20T05:07:23;5.50;;;4.10;;
7525;SDS011;3804;50.860;6.208;2023-04-20T05:09:50;6.53;;;4.40;;
7525;SDS011;3804;50.860;6.208;2023-04-20T05:12:17;7.13;;;4.40;;
7525;SDS011;3804;50.860;6.208;2023-04-20T05:14:44;8.40;;;4.33;;
7525;SDS011;3804;50.860;6.208;2023-04-20T05:17:11;6.80;;;4.40;;
7525;SDS011;3804;50.860;6.208;2023-04-20T05:19:38;10.40;;;4.80;;
7525;SDS011;3804;50.860;6.208;2023-04-20T05:22:05;8.43;;;5.00;;
7525;SDS011;3804;50.860;6.208;2023-04-20T05:24:31;8.10;;;4.73;;
7525;SDS011;3804;50.860;6.208;2023-04-20T05:26:58;7.10;;;4.73;;
7525;SDS011;3804;50.860;6.208;2023-04-20T05:29:25;8.63;;;5.13;;
7525;SDS011;3804;50.860;6.208;2023-04-20T05:31:52;9.17;;;5.20;;
7525;SDS011;3804;50.860;6.208;2023-04-20T05:34:19;8.70;;;5.57;;
7525;SDS011;3804;50.860;6.208;2023-04-20T05:36:46;9.30;;;5.50;;
7525;SDS011;3804;50.860;6.208;2023-04-20T05:39:13;7.20;;;5.20;;
7525;SDS011;3804;50.860;6.208;2023-04-20T05:41:41;10.63;;;5.30;;
7525;SDS011;3804;50.860;6.208;2023-04-20T05:44:08;11.13;;;4.80;;
7525;SDS011;3804;50.860;6.208;2023-04-20T05:46:35;7.43;;;5.33;;
7525;SDS011;3804;50.860;6.208;2023-04-20T05:49:01;11.40;;;4.97;;
7525;SDS011;3804;50.860;6.208;2023-04-20T05:51:28;7.80;;;4.83;;
7525;SDS011;3804;50.860;6.208;2023-04-20T05:53:59;7.83;;;5.20;;
7525;SDS011;3804;50.860;6.208;2023-04-20T05:56:26;6.63;;;4.63;;
7525;SDS011;3804;50.860;6.208;2023-04-20T05:58:53;7.33;;;5.50;;
7525;SDS011;3804;50.860;6.208;2023-04-20T06:01:20;9.93;;;5.47;;
7525;SDS011;3804;50.860;6.208;2023-04-20T06:03:47;11.23;;;5.53;;
7525;SDS011;3804;50.860;6.208;2023-04-20T06:06:15;7.40;;;4.60;;
7525;SDS011;3804;50.860;6.208;2023-04-20T06:08:42;5.30;;;4.80;;
7525;SDS011;3804;50.860;6.208;2023-04-20T06:11:09;8.43;;;5.40;;
7525;SDS011;3804;50.860;6.208;2023-04-20T06:13:35;7.43;;;5.17;;
7525;SDS011;3804;50.860;6.208;2023-04-20T06:16:02;6.70;;;4.17;;
7525;SDS011;3804;50.860;6.208;2023-04-20T06:18:29;8.13;;;4.93;;
7525;SDS011;3804;50.860;6.208;2023-04-20T06:20:57;8.13;;;5.20;;
7525;SDS011;3804;50.860;6.208;2023-04-20T06:23:23;8.93;;;5.90;;
7525;SDS011;3804;50.860;6.208;2023-04-20T06:25:50;7.17;;;6.00;;
7525;SDS011;3804;50.860;6.208;2023-04-20T06:28:17;8.83;;;6.23;;
7525;SDS011;3804;50.860;6.208;2023-04-20T06:30:44;8.33;;;5.67;;
7525;SDS011;3804;50.860;6.208;2023-04-20T06:33:10;8.80;;;5.83;;
7525;SDS011;3804;50.860;6.208;2023-04-20T06:35:42;8.20;;;5.97;;
7525;SDS011;3804;50.860;6.208;2023-04-20T06:38:09;8.37;;;6.33;;
7525;SDS011;3804;50.860;6.208;2023-04-20T06:40:37;7.77;;;6.17;;
7525;SDS011;3804;50.860;6.208;2023-04-20T06:43:04;10.77;;;7.47;;
7525;SDS011;3804;50.860;6.208;2023-04-20T06:45:31;9.97;;;6.70;;
7525;SDS011;3804;50.860;6.208;2023-04-20T06:47:59;10.90;;;6.63;;
7525;SDS011;3804;50.860;6.208;2023-04-20T06:50:26;10.67;;;7.23;;
7525;SDS011;3804;50.860;6.208;2023-04-20T06:52:53;10.33;;;6.77;;
7525;SDS011;3804;50.860;6.208;2023-04-20T06:55:19;13.63;;;7.20;;
7525;SDS011;3804;50.860;6.208;2023-04-20T06:57:46;10.73;;;6.97;;
7525;SDS011;3804;50.860;6.208;2023-04-20T07:00:13;11.10;;;7.47;;
7525;SDS011;3804;50.860;6.208;2023-04-20T07:02:44;11.87;;;7.40;;
7525;SDS011;3804;50.860;6.208;2023-04-20T07:05:12;12.27;;;7.53;;
7525;SDS011;3804;50.860;6.208;2023-04-20T07:07:39;13.30;;;7.03;;
7525;SDS011;3804;50.860;6.208;2023-04-20T07:10:06;10.57;;;7.40;;
7525;SDS011;3804;50.860;6.208;2023-04-20T07:12:34;13.53;;;8.23;;
7525;SDS011;3804;50.860;6.208;2023-04-20T07:15:05;11.80;;;7.53;;
7525;SDS011;3804;50.860;6.208;2023-04-20T07:17:33;11.07;;;8.07;;
7525;SDS011;3804;50.860;6.208;2023-04-20T07:20:00;9.23;;;6.30;;
7525;SDS011;3804;50.860;6.208;2023-04-20T07:22:36;13.40;;;8.07;;
7525;SDS011;3804;50.860;6.208;2023-04-20T07:25:03;11.47;;;7.23;;
7525;SDS011;3804;50.860;6.208;2023-04-20T07:27:37;11.27;;;8.57;;
7525;SDS011;3804;50.860;6.208;2023-04-20T07:30:06;7.90;;;6.43;;
7525;SDS011;3804;50.860;6.208;2023-04-20T07:32:34;10.30;;;7.67;;
7525;SDS011;3804;50.860;6.208;2023-04-20T07:35:02;11.77;;;6.37;;
7525;SDS011;3804;50.860;6.208;2023-04-20T07:37:30;10.27;;;6.93;;
7525;SDS011;3804;50.860;6.208;2023-04-20T07:40:00;10.43;;;6.47;;
7525;SDS011;3804;50.860;6.208;2023-04-20T07:42:27;10.17;;;7.00;;
7525;SDS011;3804;50.860;6.208;2023-04-20T07:44:55;8.27;;;6.63;;
7525;SDS011;3804;50.860;6.208;2023-04-20T07:47:21;12.40;;;7.17;;
7525;SDS011;3804;50.860;6.208;2023-04-20T07:49:48;10.63;;;7.40;;
7525;SDS011;3804;50.860;6.208;2023-04-20T07:52:15;12.23;;;8.03;;
7525;SDS011;3804;50.860;6.208;2023-04-20T07:54:44;12.53;;;7.67;;
7525;SDS011;3804;50.860;6.208;2023-04-20T07:57:11;11.53;;;7.30;;
7525;SDS011;3804;50.860;6.208;2023-04-20T07:59:38;9.40;;;6.67;;
7525;SDS011;3804;50.860;6.208;2023-04-20T08:02:07;11.00;;;7.17;;
7525;SDS011;3804;50.860;6.208;2023-04-20T08:04:35;10.30;;;7.10;;
7525;SDS011;3804;50.860;6.208;2023-04-20T08:07:03;11.07;;;6.80;;
7525;SDS011;3804;50.860;6.208;2023-04-20T08:09:30;10.63;;;7.00;;
7525;SDS011;3804;50.860;6.208;2023-04-20T08:11:58;10.60;;;7.40;;
7525;SDS011;3804;50.860;6.208;2023-04-20T08:14:26;14.73;;;7.80;;
7525;SDS011;3804;50.860;6.208;2023-04-20T08:16:52;15.20;;;8.17;;
7525;SDS011;3804;50.860;6.208;2023-04-20T08:19:19;14.87;;;8.13;;
7525;SDS011;3804;50.860;6.208;2023-04-20T08:21:47;12.17;;;7.73;;
7525;SDS011;3804;50.860;6.208;2023-04-20T08:24:14;13.73;;;8.50;;
7525;SDS011;3804;50.860;6.208;2023-04-20T08:26:42;15.47;;;8.37;;
7525;SDS011;3804;50.860;6.208;2023-04-20T08:29:09;10.30;;;7.07;;
7525;SDS011;3804;50.860;6.208;2023-04-20T08:31:36;13.43;;;7.87;;
7525;SDS011;3804;50.860;6.208;2023-04-20T08:34:03;12.50;;;9.37;;
7525;SDS011;3804;50.860;6.208;2023-04-20T08:36:30;14.57;;;9.03;;
7525;SDS011;3804;50.860;6.208;2023-04-20T08:39:04;12.27;;;9.40;;
7525;SDS011;3804;50.860;6.208;2023-04-20T08:41:31;12.07;;;9.33;;
7525;SDS011;3804;50.860;6.208;2023-04-20T08:43:58;14.87;;;10.23;;
7525;SDS011;3804;50.860;6.208;2023-04-20T08:46:25;15.67;;;10.73;;
7525;SDS011;3804;50.860;6.208;2023-04-20T08:48:53;13.57;;;10.40;;
7525;SDS011;3804;50.860;6.208;2023-04-20T08:51:22;12.70;;;9.90;;
7525;SDS011;3804;50.860;6.208;2023-04-20T08:53:50;15.20;;;10.20;;
7525;SDS011;3804;50.860;6.208;2023-04-20T08:56:17;12.23;;;9.60;;
7525;SDS011;3804;50.860;6.208;2023-04-20T08:58:44;14.37;;;9.57;;
7525;SDS011;3804;50.860;6.208;2023-04-20T09:01:11;14.87;;;10.27;;
7525;SDS011;3804;50.860;6.208;2023-04-20T09:03:42;14.27;;;9.47;;
7525;SDS011;3804;50.860;6.208;2023-04-20T09:06:13;14.27;;;9.23;;
7525;SDS011;3804;50.860;6.208;2023-04-20T09:08:41;16.37;;;9.13;;
7525;SDS011;3804;50.860;6.208;2023-04-20T09:14:04;13.67;;;9.30;;
7525;SDS011;3804;50.860;6.208;2023-04-20T09:16:32;12.70;;;9.50;;
7525;SDS011;3804;50.860;6.208;2023-04-20T09:19:05;13.07;;;9.77;;
7525;SDS011;3804;50.860;6.208;2023-04-20T09:21:35;14.97;;;10.13;;
7525;SDS011;3804;50.860;6.208;2023-04-20T09:24:03;11.77;;;9.80;;
7525;SDS011;3804;50.860;6.208;2023-04-20T09:26:33;11.80;;;9.67;;
7525;SDS011;3804;50.860;6.208;2023-04-20T09:29:03;12.90;;;9.80;;
7525;SDS011;3804;50.860;6.208;2023-04-20T09:31:30;14.60;;;10.47;;
7525;SDS011;3804;50.860;6.208;2023-04-20T09:33:59;12.97;;;10.97;;
7525;SDS011;3804;50.860;6.208;2023-04-20T09:36:42;16.33;;;11.70;;
7525;SDS011;3804;50.860;6.208;2023-04-20T09:39:10;13.30;;;10.97;;
7525;SDS011;3804;50.860;6.208;2023-04-20T09:41:38;17.10;;;11.07;;
7525;SDS011;3804;50.860;6.208;2023-04-20T09:44:06;14.33;;;11.07;;
7525;SDS011;3804;50.860;6.208;2023-04-20T09:46:33;15.60;;;11.50;;
7525;SDS011;3804;50.860;6.208;2023-04-20T09:49:04;15.30;;;10.90;;
7525;SDS011;3804;50.860;6.208;2023-04-20T09:51:35;13.77;;;10.33;;
7525;SDS011;3804;50.860;6.208;2023-04-20T09:54:03;11.53;;;9.40;;
7525;SDS011;3804;50.860;6.208;2023-04-20T09:56:31;12.87;;;9.33;;
7525;SDS011;3804;50.860;6.208;2023-04-20T09:58:59;12.27;;;9.27;;
7525;SDS011;3804;50.860;6.208;2023-04-20T10:01:30;12.30;;;8.37;;
7525;SDS011;3804;50.860;6.208;2023-04-20T10:03:58;10.43;;;8.07;;
7525;SDS011;3804;50.860;6.208;2023-04-20T10:06:28;11.03;;;8.23;;
7525;SDS011;3804;50.860;6.208;2023-04-20T10:08:56;10.80;;;8.40;;
7525;SDS011;3804;50.860;6.208;2023-04-20T10:11:25;14.30;;;8.70;;
7525;SDS011;3804;50.860;6.208;2023-04-20T10:16:43;10.63;;;8.03;;
7525;SDS011;3804;50.860;6.208;2023-04-20T10:19:11;8.83;;;7.13;;
7525;SDS011;3804;50.860;6.208;2023-04-20T10:21:45;10.83;;;8.23;;
7525;SDS011;3804;50.860;6.208;2023-04-20T10:24:13;10.17;;;7.80;;
7525;SDS011;3804;50.860;6.208;2023-04-20T10:26:43;11.20;;;8.77;;
7525;SDS011;3804;50.860;6.208;2023-04-20T10:29:26;14.47;;;9.33;;
7525;SDS011;3804;50.860;6.208;2023-04-20T10:31:54;13.07;;;9.10;;
7525;SDS011;3804;50.860;6.208;2023-04-20T10:34:34;11.23;;;6.77;;
7525;SDS011;3804;50.860;6.208;2023-04-20T10:39:35;11.23;;;8.00;;
7525;SDS011;3804;50.860;6.208;2023-04-20T10:42:03;8.80;;;6.83;;
7525;SDS011;3804;50.860;6.208;2023-04-20T10:44:30;7.87;;;5.97;;
7525;SDS011;3804;50.860;6.208;2023-04-20T10:46:58;6.07;;;5.10;;
7525;SDS011;3804;50.860;6.208;2023-04-20T10:49:25;6.00;;;4.73;;
7525;SDS011;3804;50.860;6.208;2023-04-20T10:51:53;5.50;;;4.67;;
7525;SDS011;3804;50.860;6.208;2023-04-20T10:54:22;6.60;;;4.03;;
7525;SDS011;3804;50.860;6.208;2023-04-20T10:56:50;8.50;;;4.60;;
7525;SDS011;3804;50.860;6.208;2023-04-20T10:59:18;4.63;;;3.90;;
7525;SDS011;3804;50.860;6.208;2023-04-20T11:01:45;6.53;;;4.77;;
7525;SDS011;3804;50.860;6.208;2023-04-20T11:04:13;5.17;;;4.63;;
7525;SDS011;3804;50.860;6.208;2023-04-20T11:06:44;4.17;;;3.77;;
7525;SDS011;3804;50.860;6.208;2023-04-20T11:09:16;3.73;;;2.90;;
7525;SDS011;3804;50.860;6.208;2023-04-20T11:11:56;3.43;;;2.80;;
7525;SDS011;3804;50.860;6.208;2023-04-20T11:14:23;2.80;;;2.47;;
7525;SDS011;3804;50.860;6.208;2023-04-20T11:16:50;2.53;;;2.33;;
7525;SDS011;3804;50.860;6.208;2023-04-20T11:19:21;2.40;;;2.20;;
7525;SDS011;3804;50.860;6.208;2023-04-20T11:21:49;3.40;;;2.97;;
7525;SDS011;3804;50.860;6.208;2023-04-20T11:24:16;703.03;;;56.30;;
7525;SDS011;3804;50.860;6.208;2023-04-20T11:26:45;610.87;;;41.67;;
7525;SDS011;3804;50.860;6.208;2023-04-20T11:29:31;564.47;;;36.57;;
7525;SDS011;3804;50.860;6.208;2023-04-20T11:32:00;3.37;;;1.70;;
7525;SDS011;3804;50.860;6.208;2023-04-20T11:34:28;1.70;;;1.60;;
7525;SDS011;3804;50.860;6.208;2023-04-20T11:36:55;11.27;;;2.20;;
7525;SDS011;3804;50.860;6.208;2023-04-20T11:39:26;14.20;;;2.90;;
7525;SDS011;3804;50.860;6.208;2023-04-20T11:41:55;3.57;;;1.60;;
7525;SDS011;3804;50.860;6.208;2023-04-20T11:44:23;2.87;;;2.20;;
7525;SDS011;3804;50.860;6.208;2023-04-20T11:46:52;2.43;;;2.10;;
7525;SDS011;3804;50.860;6.208;2023-04-20T11:49:20;2.40;;;2.20;;
7525;SDS011;3804;50.860;6.208;2023-04-20T11:51:47;2.67;;;2.10;;
7525;SDS011;3804;50.860;6.208;2023-04-20T11:54:14;3.70;;;3.10;;
7525;SDS011;3804;50.860;6.208;2023-04-20T11:56:41;3.23;;;2.93;;
7525;SDS011;3804;50.860;6.208;2023-04-20T11:59:08;8.10;;;4.40;;
7525;SDS011;3804;50.860;6.208;2023-04-20T12:01:35;5.17;;;3.97;;
7525;SDS011;3804;50.860;6.208;2023-04-20T12:04:02;10.60;;;5.47;;
7525;SDS011;3804;50.860;6.208;2023-04-20T12:06:30;7.40;;;4.90;;
7525;SDS011;3804;50.860;6.208;2023-04-20T12:08:59;5.43;;;4.37;;
7525;SDS011;3804;50.860;6.208;2023-04-20T12:11:26;4.90;;;4.00;;
7525;SDS011;3804;50.860;6.208;2023-04-20T12:13:53;6.23;;;4.10;;
7525;SDS011;3804;50.860;6.208;2023-04-20T12:16:21;6.13;;;3.63;;
7525;SDS011;3804;50.860;6.208;2023-04-20T12:18:48;2.97;;;2.47;;
7525;SDS011;3804;50.860;6.208;2023-04-20T12:21:15;2.70;;;2.00;;
7525;SDS011;3804;50.860;6.208;2023-04-20T12:23:42;2.80;;;2.40;;
7525;SDS011;3804;50.860;6.208;2023-04-20T12:26:09;2.67;;;2.33;;
7525;SDS011;3804;50.860;6.208;2023-04-20T12:28:36;2.43;;;2.23;;
7525;SDS011;3804;50.860;6.208;2023-04-20T12:31:03;3.63;;;2.67;;
7525;SDS011;3804;50.860;6.208;2023-04-20T12:33:30;2.73;;;2.53;;
7525;SDS011;3804;50.860;6.208;2023-04-20T12:35:57;3.47;;;2.90;;
7525;SDS011;3804;50.860;6.208;2023-04-20T12:38:24;3.33;;;2.80;;
7525;SDS011;3804;50.860;6.208;2023-04-20T12:40:51;3.37;;;3.00;;
7525;SDS011;3804;50.860;6.208;2023-04-20T12:43:18;3.57;;;3.07;;
7525;SDS011;3804;50.860;6.208;2023-04-20T12:45:45;3.23;;;2.90;;
7525;SDS011;3804;50.860;6.208;2023-04-20T12:48:13;3.40;;;2.90;;
7525;SDS011;3804;50.860;6.208;2023-04-20T12:50:41;3.07;;;2.77;;
7525;SDS011;3804;50.860;6.208;2023-04-20T12:53:08;2.77;;;2.57;;
7525;SDS011;3804;50.860;6.208;2023-04-20T12:55:34;3.27;;;2.97;;
7525;SDS011;3804;50.860;6.208;2023-04-20T12:58:01;2.27;;;2.10;;
7525;SDS011;3804;50.860;6.208;2023-04-20T13:00:28;2.83;;;2.50;;
7525;SDS011;3804;50.860;6.208;2023-04-20T13:02:55;2.77;;;2.30;;
7525;SDS011;3804;50.860;6.208;2023-04-20T13:05:23;2.73;;;2.40;;
7525;SDS011;3804;50.860;6.208;2023-04-20T13:07:50;3.23;;;2.93;;
7525;SDS011;3804;50.860;6.208;2023-04-20T13:10:17;3.13;;;2.90;;
7525;SDS011;3804;50.860;6.208;2023-04-20T13:12:44;2.53;;;2.33;;
7525;SDS011;3804;50.860;6.208;2023-04-20T13:15:11;3.40;;;3.10;;
7525;SDS011;3804;50.860;6.208;2023-04-20T13:17:38;3.03;;;2.73;;
7525;SDS011;3804;50.860;6.208;2023-04-20T13:20:05;2.70;;;2.50;;
7525;SDS011;3804;50.860;6.208;2023-04-20T13:22:33;3.00;;;2.60;;
7525;SDS011;3804;50.860;6.208;2023-04-20T13:25:09;3.30;;;3.00;;
7525;SDS011;3804;50.860;6.208;2023-04-20T13:27:36;2.83;;;2.47;;
7525;SDS011;3804;50.860;6.208;2023-04-20T13:30:03;3.17;;;2.80;;
7525;SDS011;3804;50.860;6.208;2023-04-20T13:32:31;3.70;;;3.40;;
7525;SDS011;3804;50.860;6.208;2023-04-20T13:34:59;3.70;;;3.27;;
7525;SDS011;3804;50.860;6.208;2023-04-20T13:37:26;3.23;;;2.93;;
7525;SDS011;3804;50.860;6.208;2023-04-20T13:39:53;3.50;;;3.20;;
7525;SDS011;3804;50.860;6.208;2023-04-20T13:42:19;3.43;;;3.13;;
7525;SDS011;3804;50.860;6.208;2023-04-20T13:44:46;4.17;;;3.53;;
7525;SDS011;3804;50.860;6.208;2023-04-20T13:47:13;4.97;;;4.27;;
7525;SDS011;3804;50.860;6.208;2023-04-20T13:49:40;4.60;;;4.20;;
7525;SDS011;3804;50.860;6.208;2023-04-20T13:52:07;5.00;;;4.60;;
7525;SDS011;3804;50.860;6.208;2023-04-20T13:54:34;4.83;;;4.27;;
7525;SDS011;3804;50.860;6.208;2023-04-20T13:57:01;5.27;;;4.40;;
7525;SDS011;3804;50.860;6.208;2023-04-20T13:59:27;3.13;;;2.90;;
7525;SDS011;3804;50.860;6.208;2023-04-20T14:01:55;5.47;;;4.40;;
7525;SDS011;3804;50.860;6.208;2023-04-20T14:04:21;10.63;;;4.40;;
7525;SDS011;3804;50.860;6.208;2023-04-20T14:06:49;6.00;;;4.40;;
7525;SDS011;3804;50.860;6.208;2023-04-20T14:09:16;4.53;;;4.13;;
7525;SDS011;3804;50.860;6.208;2023-04-20T14:11:43;5.33;;;4.27;;
7525;SDS011;3804;50.860;6.208;2023-04-20T14:14:10;5.00;;;4.50;;
7525;SDS011;3804;50.860;6.208;2023-04-20T14:16:47;7.90;;;4.53;;
7525;SDS011;3804;50.860;6.208;2023-04-20T14:19:14;4.73;;;4.10;;
7525;SDS011;3804;50.860;6.208;2023-04-20T14:21:40;5.80;;;4.67;;
7525;SDS011;3804;50.860;6.208;2023-04-20T14:24:10;5.47;;;3.97;;
7525;SDS011;3804;50.860;6.208;2023-04-20T14:26:37;6.33;;;4.23;;
7525;SDS011;3804;50.860;6.208;2023-04-20T14:29:04;4.13;;;3.70;;
7525;SDS011;3804;50.860;6.208;2023-04-20T14:31:31;5.73;;;4.60;;
7525;SDS011;3804;50.860;6.208;2023-04-20T14:33:58;3.87;;;3.47;;
7525;SDS011;3804;50.860;6.208;2023-04-20T14:36:26;3.70;;;3.40;;
7525;SDS011;3804;50.860;6.208;2023-04-20T14:38:52;3.90;;;3.50;;
7525;SDS011;3804;50.860;6.208;2023-04-20T14:41:21;4.10;;;3.70;;
7525;SDS011;3804;50.860;6.208;2023-04-20T14:43:47;4.40;;;4.00;;
7525;SDS011;3804;50.860;6.208;2023-04-20T14:46:14;4.90;;;3.97;;
7525;SDS011;3804;50.860;6.208;2023-04-20T14:48:41;5.00;;;3.50;;
7525;SDS011;3804;50.860;6.208;2023-04-20T14:51:12;4.10;;;3.47;;
7525;SDS011;3804;50.860;6.208;2023-04-20T14:53:39;4.03;;;3.63;;
7525;SDS011;3804;50.860;6.208;2023-04-20T14:56:05;6.40;;;4.53;;
7525;SDS011;3804;50.860;6.208;2023-04-20T14:58:32;5.63;;;4.00;;
7525;SDS011;3804;50.860;6.208;2023-04-20T15:00:59;4.80;;;3.83;;
7525;SDS011;3804;50.860;6.208;2023-04-20T15:03:26;4.93;;;4.43;;
7525;SDS011;3804;50.860;6.208;2023-04-20T15:05:57;4.23;;;3.83;;
7525;SDS011;3804;50.860;6.208;2023-04-20T15:08:24;5.87;;;4.37;;
7525;SDS011;3804;50.860;6.208;2023-04-20T15:10:51;6.30;;;4.00;;
7525;SDS011;3804;50.860;6.208;2023-04-20T15:13:22;5.30;;;4.53;;
7525;SDS011;3804;50.860;6.208;2023-04-20T15:15:49;4.93;;;3.97;;
7525;SDS011;3804;50.860;6.208;2023-04-20T15:18:22;5.90;;;4.77;;
7525;SDS011;3804;50.860;6.208;2023-04-20T15:20:49;8.13;;;4.63;;
7525;SDS011;3804;50.860;6.208;2023-04-20T15:23:17;7.20;;;4.47;;